KELK/ELK METAR and TAF weather

Enter ICAO airport designator
Station Type Date Time Source
KELK METAR 2021/09/23 18:15 UTC NOAA

KELK 231815Z AUTO 18014G20KT 10SM CLR 27/02 A3012 RMK AO2 T02670016


Station Type Date Time Source
KELK Decoded METAR 2021/09/23 18:15 UTC NOAA

Station name not available
Sep 23, 2021 - 02:15 PM EDT / 2021.09.23 1815 UTC
Wind: from the S (180 degrees) at 16 MPH (14 KT) gusting to 23 MPH (20 KT):0
Visibility: 10 mile(s):0
Sky conditions: clear
Temperature: 80.1 F (26.7 C)
Dew Point: 34.9 F (1.6 C)
Relative Humidity: 19%
Pressure (altimeter): 30.12 in. Hg (1019 hPa)
ob: KELK 231815Z AUTO 18014G20KT 10SM CLR 27/02 A3012 RMK AO2 T02670016
cycle: 18

Station Type Date Time Source
KELK TAF UTC NOAA

Error!

Example: see airport list